sensor_id;sensor_type;location;lat;lon;timestamp;temperature;humidity
19292;DHT22;9779;51.756;7.450;2022-08-21T00:01:43;19.30;99.90
19292;DHT22;9779;51.756;7.450;2022-08-21T00:04:09;19.20;99.90
19292;DHT22;9779;51.756;7.450;2022-08-21T00:06:36;19.20;99.90
19292;DHT22;9779;51.756;7.450;2022-08-21T00:09:04;19.20;99.90
19292;DHT22;9779;51.756;7.450;2022-08-21T00:11:30;19.10;99.90
19292;DHT22;9779;51.756;7.450;2022-08-21T00:13:55;19.10;99.90
19292;DHT22;9779;51.756;7.450;2022-08-21T00:16:21;19.10;99.90
19292;DHT22;9779;51.756;7.450;2022-08-21T00:18:47;19.00;99.90
19292;DHT22;9779;51.756;7.450;2022-08-21T00:21:14;19.00;99.90
19292;DHT22;9779;51.756;7.450;2022-08-21T00:23:40;18.90;99.90
19292;DHT22;9779;51.756;7.450;2022-08-21T00:26:07;18.90;99.90
19292;DHT22;9779;51.756;7.450;2022-08-21T00:28:32;18.90;99.90
19292;DHT22;9779;51.756;7.450;2022-08-21T00:30:59;18.80;99.90
19292;DHT22;9779;51.756;7.450;2022-08-21T00:33:25;18.80;99.90
19292;DHT22;9779;51.756;7.450;2022-08-21T00:35:51;18.80;99.90
19292;DHT22;9779;51.756;7.450;2022-08-21T00:38:17;18.80;99.90
19292;DHT22;9779;51.756;7.450;2022-08-21T00:40:50;18.70;99.90
19292;DHT22;9779;51.756;7.450;2022-08-21T00:43:20;18.70;99.90
19292;DHT22;9779;51.756;7.450;2022-08-21T00:45:47;18.60;99.90
19292;DHT22;9779;51.756;7.450;2022-08-21T00:48:12;18.60;99.90
19292;DHT22;9779;51.756;7.450;2022-08-21T00:50:43;18.60;99.90
19292;DHT22;9779;51.756;7.450;2022-08-21T00:53:10;18.60;99.90
19292;DHT22;9779;51.756;7.450;2022-08-21T00:55:37;18.50;99.90
19292;DHT22;9779;51.756;7.450;2022-08-21T00:58:05;18.40;99.90
19292;DHT22;9779;51.756;7.450;2022-08-21T01:00:36;18.50;99.90
19292;DHT22;9779;51.756;7.450;2022-08-21T01:03:11;18.50;99.90
19292;DHT22;9779;51.756;7.450;2022-08-21T01:05:37;18.50;99.90
19292;DHT22;9779;51.756;7.450;2022-08-21T01:08:04;18.50;99.90
19292;DHT22;9779;51.756;7.450;2022-08-21T01:10:30;18.30;99.90
19292;DHT22;9779;51.756;7.450;2022-08-21T01:12:56;18.40;99.90
19292;DHT22;9779;51.756;7.450;2022-08-21T01:15:26;18.40;99.90
19292;DHT22;9779;51.756;7.450;2022-08-21T01:17:52;18.40;99.90
19292;DHT22;9779;51.756;7.450;2022-08-21T01:20:19;18.40;99.90
19292;DHT22;9779;51.756;7.450;2022-08-21T01:22:44;18.40;99.90
19292;DHT22;9779;51.756;7.450;2022-08-21T01:25:14;18.30;99.90
19292;DHT22;9779;51.756;7.450;2022-08-21T01:27:40;18.30;99.90
19292;DHT22;9779;51.756;7.450;2022-08-21T01:30:16;18.30;99.90
19292;DHT22;9779;51.756;7.450;2022-08-21T01:32:43;18.30;99.90
19292;DHT22;9779;51.756;7.450;2022-08-21T01:35:09;18.30;99.90
19292;DHT22;9779;51.756;7.450;2022-08-21T01:37:36;18.30;99.90
19292;DHT22;9779;51.756;7.450;2022-08-21T01:40:04;18.30;99.90
19292;DHT22;9779;51.756;7.450;2022-08-21T01:42:30;18.30;99.90
19292;DHT22;9779;51.756;7.450;2022-08-21T01:44:55;18.30;99.90
19292;DHT22;9779;51.756;7.450;2022-08-21T01:47:22;18.20;99.90
19292;DHT22;9779;51.756;7.450;2022-08-21T01:49:47;18.20;99.90
19292;DHT22;9779;51.756;7.450;2022-08-21T01:52:13;18.20;99.90
19292;DHT22;9779;51.756;7.450;2022-08-21T01:54:39;18.20;99.90
19292;DHT22;9779;51.756;7.450;2022-08-21T01:57:05;18.10;99.90
19292;DHT22;9779;51.756;7.450;2022-08-21T01:59:31;18.10;99.90
19292;DHT22;9779;51.756;7.450;2022-08-21T02:01:57;18.00;99.90
19292;DHT22;9779;51.756;7.450;2022-08-21T02:06:49;18.00;99.90
19292;DHT22;9779;51.756;7.450;2022-08-21T02:09:15;18.00;99.90
19292;DHT22;9779;51.756;7.450;2022-08-21T02:11:42;18.00;99.90
19292;DHT22;9779;51.756;7.450;2022-08-21T02:14:10;18.00;99.90
19292;DHT22;9779;51.756;7.450;2022-08-21T02:16:38;17.90;99.90
19292;DHT22;9779;51.756;7.450;2022-08-21T02:19:04;17.80;99.90
19292;DHT22;9779;51.756;7.450;2022-08-21T02:21:30;17.80;99.90
19292;DHT22;9779;51.756;7.450;2022-08-21T02:23:56;17.70;99.90
19292;DHT22;9779;51.756;7.450;2022-08-21T02:26:22;17.70;99.90
19292;DHT22;9779;51.756;7.450;2022-08-21T02:28:48;17.70;99.90
19292;DHT22;9779;51.756;7.450;2022-08-21T02:31:14;17.70;99.90
19292;DHT22;9779;51.756;7.450;2022-08-21T02:33:40;17.70;99.90
19292;DHT22;9779;51.756;7.450;2022-08-21T02:36:06;17.60;99.90
19292;DHT22;9779;51.756;7.450;2022-08-21T02:38:33;17.60;99.90
19292;DHT22;9779;51.756;7.450;2022-08-21T02:41:03;17.50;99.90
19292;DHT22;9779;51.756;7.450;2022-08-21T02:43:29;17.50;99.90
19292;DHT22;9779;51.756;7.450;2022-08-21T02:45:56;17.50;99.90
19292;DHT22;9779;51.756;7.450;2022-08-21T02:48:29;17.40;99.90
19292;DHT22;9779;51.756;7.450;2022-08-21T02:50:58;17.40;99.90
19292;DHT22;9779;51.756;7.450;2022-08-21T02:53:25;17.30;99.90
19292;DHT22;9779;51.756;7.450;2022-08-21T02:55:52;17.40;99.90
19292;DHT22;9779;51.756;7.450;2022-08-21T02:58:25;17.30;99.90
19292;DHT22;9779;51.756;7.450;2022-08-21T03:00:52;17.30;99.90
19292;DHT22;9779;51.756;7.450;2022-08-21T03:03:17;17.20;99.90
19292;DHT22;9779;51.756;7.450;2022-08-21T03:05:44;17.20;99.90
19292;DHT22;9779;51.756;7.450;2022-08-21T03:08:11;17.20;99.90
19292;DHT22;9779;51.756;7.450;2022-08-21T03:10:40;17.10;99.90
19292;DHT22;9779;51.756;7.450;2022-08-21T03:13:07;17.10;99.90
19292;DHT22;9779;51.756;7.450;2022-08-21T03:15:32;17.10;99.90
19292;DHT22;9779;51.756;7.450;2022-08-21T03:17:58;17.10;99.90
19292;DHT22;9779;51.756;7.450;2022-08-21T03:20:27;17.00;99.90
19292;DHT22;9779;51.756;7.450;2022-08-21T03:22:54;17.00;99.90
19292;DHT22;9779;51.756;7.450;2022-08-21T03:25:24;17.00;99.90
19292;DHT22;9779;51.756;7.450;2022-08-21T03:27:50;17.00;99.90
19292;DHT22;9779;51.756;7.450;2022-08-21T03:30:17;16.90;99.90
19292;DHT22;9779;51.756;7.450;2022-08-21T03:32:45;16.90;99.90
19292;DHT22;9779;51.756;7.450;2022-08-21T03:35:11;16.80;99.90
19292;DHT22;9779;51.756;7.450;2022-08-21T03:37:38;16.80;99.90
19292;DHT22;9779;51.756;7.450;2022-08-21T03:40:08;16.80;99.90
19292;DHT22;9779;51.756;7.450;2022-08-21T03:42:34;16.70;99.90
19292;DHT22;9779;51.756;7.450;2022-08-21T03:45:00;16.70;99.90
19292;DHT22;9779;51.756;7.450;2022-08-21T03:47:26;16.70;99.90
19292;DHT22;9779;51.756;7.450;2022-08-21T03:49:52;16.70;99.90
19292;DHT22;9779;51.756;7.450;2022-08-21T03:52:18;16.60;99.90
19292;DHT22;9779;51.756;7.450;2022-08-21T03:54:44;16.60;99.90
19292;DHT22;9779;51.756;7.450;2022-08-21T03:57:10;16.60;99.90
19292;DHT22;9779;51.756;7.450;2022-08-21T03:59:37;16.60;99.90
19292;DHT22;9779;51.756;7.450;2022-08-21T04:02:04;16.50;99.90
19292;DHT22;9779;51.756;7.450;2022-08-21T04:04:30;16.50;99.90
19292;DHT22;9779;51.756;7.450;2022-08-21T04:06:57;16.40;99.90
19292;DHT22;9779;51.756;7.450;2022-08-21T04:09:23;16.40;99.90
19292;DHT22;9779;51.756;7.450;2022-08-21T04:11:49;16.40;99.90
19292;DHT22;9779;51.756;7.450;2022-08-21T04:14:16;16.40;99.90
19292;DHT22;9779;51.756;7.450;2022-08-21T04:16:42;16.40;99.90
19292;DHT22;9779;51.756;7.450;2022-08-21T04:19:09;16.30;99.90
19292;DHT22;9779;51.756;7.450;2022-08-21T04:21:38;16.30;99.90
19292;DHT22;9779;51.756;7.450;2022-08-21T04:24:05;16.30;99.90
19292;DHT22;9779;51.756;7.450;2022-08-21T04:26:31;16.30;99.90
19292;DHT22;9779;51.756;7.450;2022-08-21T04:28:57;16.30;99.90
19292;DHT22;9779;51.756;7.450;2022-08-21T04:31:24;16.20;99.90
19292;DHT22;9779;51.756;7.450;2022-08-21T04:33:50;16.20;99.90
19292;DHT22;9779;51.756;7.450;2022-08-21T04:36:16;16.10;99.90
19292;DHT22;9779;51.756;7.450;2022-08-21T04:38:42;16.10;99.90
19292;DHT22;9779;51.756;7.450;2022-08-21T04:41:07;16.10;99.90
19292;DHT22;9779;51.756;7.450;2022-08-21T04:43:33;16.10;99.90
19292;DHT22;9779;51.756;7.450;2022-08-21T04:45:59;16.10;99.90
19292;DHT22;9779;51.756;7.450;2022-08-21T04:48:26;16.00;99.90
19292;DHT22;9779;51.756;7.450;2022-08-21T04:53:24;16.00;99.90
19292;DHT22;9779;51.756;7.450;2022-08-21T04:55:52;16.00;99.90
19292;DHT22;9779;51.756;7.450;2022-08-21T04:58:21;15.90;99.90
19292;DHT22;9779;51.756;7.450;2022-08-21T05:00:49;15.90;99.90
19292;DHT22;9779;51.756;7.450;2022-08-21T05:03:17;16.00;99.90
19292;DHT22;9779;51.756;7.450;2022-08-21T05:05:43;16.00;99.90
19292;DHT22;9779;51.756;7.450;2022-08-21T05:08:12;15.90;99.90
19292;DHT22;9779;51.756;7.450;2022-08-21T05:10:39;15.90;99.90
19292;DHT22;9779;51.756;7.450;2022-08-21T05:13:06;15.80;99.90
19292;DHT22;9779;51.756;7.450;2022-08-21T05:15:32;15.80;99.90
19292;DHT22;9779;51.756;7.450;2022-08-21T05:17:58;15.80;99.90
19292;DHT22;9779;51.756;7.450;2022-08-21T05:20:23;15.80;99.90
19292;DHT22;9779;51.756;7.450;2022-08-21T05:22:49;15.80;99.90
19292;DHT22;9779;51.756;7.450;2022-08-21T05:25:15;15.80;99.90
19292;DHT22;9779;51.756;7.450;2022-08-21T05:27:41;15.80;99.90
19292;DHT22;9779;51.756;7.450;2022-08-21T05:30:09;15.90;99.90
19292;DHT22;9779;51.756;7.450;2022-08-21T05:32:35;15.80;99.90
19292;DHT22;9779;51.756;7.450;2022-08-21T05:35:02;15.80;99.90
19292;DHT22;9779;51.756;7.450;2022-08-21T05:37:28;15.80;99.90
19292;DHT22;9779;51.756;7.450;2022-08-21T05:39:53;15.90;99.90
19292;DHT22;9779;51.756;7.450;2022-08-21T05:42:19;15.90;99.90
19292;DHT22;9779;51.756;7.450;2022-08-21T05:44:44;15.90;99.90
19292;DHT22;9779;51.756;7.450;2022-08-21T05:47:11;15.90;99.90
19292;DHT22;9779;51.756;7.450;2022-08-21T05:49:37;15.90;99.90
19292;DHT22;9779;51.756;7.450;2022-08-21T05:52:03;16.00;99.90
19292;DHT22;9779;51.756;7.450;2022-08-21T05:54:29;16.00;99.90
19292;DHT22;9779;51.756;7.450;2022-08-21T05:56:56;15.90;99.90
19292;DHT22;9779;51.756;7.450;2022-08-21T05:59:22;16.00;99.90
19292;DHT22;9779;51.756;7.450;2022-08-21T06:01:48;16.00;99.90
19292;DHT22;9779;51.756;7.450;2022-08-21T06:04:14;16.10;99.90
19292;DHT22;9779;51.756;7.450;2022-08-21T06:06:40;16.10;99.90
19292;DHT22;9779;51.756;7.450;2022-08-21T06:09:05;16.20;99.90
19292;DHT22;9779;51.756;7.450;2022-08-21T06:11:32;16.20;99.90
19292;DHT22;9779;51.756;7.450;2022-08-21T06:13:58;16.20;99.90
19292;DHT22;9779;51.756;7.450;2022-08-21T06:16:25;16.20;99.90
19292;DHT22;9779;51.756;7.450;2022-08-21T06:18:51;16.20;99.90
19292;DHT22;9779;51.756;7.450;2022-08-21T06:21:16;16.20;99.90
19292;DHT22;9779;51.756;7.450;2022-08-21T06:23:42;16.20;99.90
19292;DHT22;9779;51.756;7.450;2022-08-21T06:26:10;16.30;99.90
19292;DHT22;9779;51.756;7.450;2022-08-21T06:28:36;16.40;99.90
19292;DHT22;9779;51.756;7.450;2022-08-21T06:31:11;16.40;99.90
19292;DHT22;9779;51.756;7.450;2022-08-21T06:33:36;16.40;99.90
19292;DHT22;9779;51.756;7.450;2022-08-21T06:36:02;16.50;99.90
19292;DHT22;9779;51.756;7.450;2022-08-21T06:38:28;16.50;99.90
19292;DHT22;9779;51.756;7.450;2022-08-21T06:40:53;16.50;99.90
19292;DHT22;9779;51.756;7.450;2022-08-21T06:43:19;16.60;99.90
19292;DHT22;9779;51.756;7.450;2022-08-21T06:45:45;16.60;99.90
19292;DHT22;9779;51.756;7.450;2022-08-21T06:48:11;16.70;99.90
19292;DHT22;9779;51.756;7.450;2022-08-21T06:50:36;16.80;99.90
19292;DHT22;9779;51.756;7.450;2022-08-21T06:53:09;16.80;99.90
19292;DHT22;9779;51.756;7.450;2022-08-21T06:55:35;16.80;99.90
19292;DHT22;9779;51.756;7.450;2022-08-21T06:58:02;16.90;99.90
19292;DHT22;9779;51.756;7.450;2022-08-21T07:00:28;17.00;99.90
19292;DHT22;9779;51.756;7.450;2022-08-21T07:02:53;17.00;99.90
19292;DHT22;9779;51.756;7.450;2022-08-21T07:05:19;17.10;99.90
19292;DHT22;9779;51.756;7.450;2022-08-21T07:07:45;17.10;99.90
19292;DHT22;9779;51.756;7.450;2022-08-21T07:10:12;17.10;99.90
19292;DHT22;9779;51.756;7.450;2022-08-21T07:12:37;17.20;99.90
19292;DHT22;9779;51.756;7.450;2022-08-21T07:15:04;17.30;99.90
19292;DHT22;9779;51.756;7.450;2022-08-21T07:17:29;17.30;99.90
19292;DHT22;9779;51.756;7.450;2022-08-21T07:19:55;17.40;99.90
19292;DHT22;9779;51.756;7.450;2022-08-21T07:22:21;17.50;99.90
19292;DHT22;9779;51.756;7.450;2022-08-21T07:24:47;17.60;99.90
19292;DHT22;9779;51.756;7.450;2022-08-21T07:27:13;17.80;99.90
19292;DHT22;9779;51.756;7.450;2022-08-21T07:29:38;17.80;99.90
19292;DHT22;9779;51.756;7.450;2022-08-21T07:32:05;17.90;99.90
19292;DHT22;9779;51.756;7.450;2022-08-21T07:34:30;18.00;99.90
19292;DHT22;9779;51.756;7.450;2022-08-21T07:36:57;18.00;99.90
19292;DHT22;9779;51.756;7.450;2022-08-21T07:39:23;18.10;99.90
19292;DHT22;9779;51.756;7.450;2022-08-21T07:41:48;18.20;99.90
19292;DHT22;9779;51.756;7.450;2022-08-21T07:44:14;18.20;99.90
19292;DHT22;9779;51.756;7.450;2022-08-21T07:46:39;18.30;99.90
19292;DHT22;9779;51.756;7.450;2022-08-21T07:49:05;18.40;99.90
19292;DHT22;9779;51.756;7.450;2022-08-21T07:51:31;18.50;99.90
19292;DHT22;9779;51.756;7.450;2022-08-21T07:53:59;18.50;99.90
19292;DHT22;9779;51.756;7.450;2022-08-21T07:56:26;18.60;99.90
19292;DHT22;9779;51.756;7.450;2022-08-21T07:58:52;18.70;99.90
19292;DHT22;9779;51.756;7.450;2022-08-21T08:01:18;18.70;99.90
19292;DHT22;9779;51.756;7.450;2022-08-21T08:03:44;18.80;99.90
19292;DHT22;9779;51.756;7.450;2022-08-21T08:06:11;18.90;99.90
19292;DHT22;9779;51.756;7.450;2022-08-21T08:08:42;19.00;99.90
19292;DHT22;9779;51.756;7.450;2022-08-21T08:11:09;19.10;99.90
19292;DHT22;9779;51.756;7.450;2022-08-21T08:13:42;19.20;99.90
19292;DHT22;9779;51.756;7.450;2022-08-21T08:16:08;19.30;99.90
19292;DHT22;9779;51.756;7.450;2022-08-21T08:18:34;19.40;99.90
19292;DHT22;9779;51.756;7.450;2022-08-21T08:21:00;19.50;99.90
19292;DHT22;9779;51.756;7.450;2022-08-21T08:23:25;19.60;99.90
19292;DHT22;9779;51.756;7.450;2022-08-21T08:25:52;19.70;99.90
19292;DHT22;9779;51.756;7.450;2022-08-21T08:28:18;19.80;99.90
19292;DHT22;9779;51.756;7.450;2022-08-21T08:30:46;19.80;99.90
19292;DHT22;9779;51.756;7.450;2022-08-21T08:33:13;19.80;99.90
19292;DHT22;9779;51.756;7.450;2022-08-21T08:35:41;19.90;99.90
19292;DHT22;9779;51.756;7.450;2022-08-21T08:38:07;20.00;99.90
19292;DHT22;9779;51.756;7.450;2022-08-21T08:41:10;20.10;99.90
19292;DHT22;9779;51.756;7.450;2022-08-21T08:43:25;20.20;99.90
19292;DHT22;9779;51.756;7.450;2022-08-21T08:45:53;20.20;99.90
19292;DHT22;9779;51.756;7.450;2022-08-21T08:48:49;20.30;99.90
19292;DHT22;9779;51.756;7.450;2022-08-21T08:51:24;20.50;99.90
19292;DHT22;9779;51.756;7.450;2022-08-21T08:53:54;20.60;99.90
19292;DHT22;9779;51.756;7.450;2022-08-21T08:56:28;20.60;99.90
19292;DHT22;9779;51.756;7.450;2022-08-21T08:58:59;20.70;99.90
19292;DHT22;9779;51.756;7.450;2022-08-21T09:01:26;20.80;99.90
19292;DHT22;9779;51.756;7.450;2022-08-21T09:03:51;20.90;99.90
19292;DHT22;9779;51.756;7.450;2022-08-21T09:06:43;20.90;99.90
19292;DHT22;9779;51.756;7.450;2022-08-21T09:12:44;21.10;99.90
19292;DHT22;9779;51.756;7.450;2022-08-21T09:20:41;21.60;99.90
19292;DHT22;9779;51.756;7.450;2022-08-21T09:23:36;21.80;99.90
19292;DHT22;9779;51.756;7.450;2022-08-21T09:26:26;21.80;99.90
19292;DHT22;9779;51.756;7.450;2022-08-21T09:28:56;21.80;99.90
19292;DHT22;9779;51.756;7.450;2022-08-21T09:31:29;22.00;99.90
19292;DHT22;9779;51.756;7.450;2022-08-21T09:34:07;22.20;99.90
19292;DHT22;9779;51.756;7.450;2022-08-21T09:36:47;22.30;99.90
19292;DHT22;9779;51.756;7.450;2022-08-21T09:39:22;22.50;99.90
19292;DHT22;9779;51.756;7.450;2022-08-21T09:41:56;22.50;99.90
19292;DHT22;9779;51.756;7.450;2022-08-21T09:44:32;22.50;99.90
19292;DHT22;9779;51.756;7.450;2022-08-21T09:46:58;22.60;99.90
19292;DHT22;9779;51.756;7.450;2022-08-21T09:49:30;22.50;99.90
19292;DHT22;9779;51.756;7.450;2022-08-21T09:51:56;22.50;99.90
19292;DHT22;9779;51.756;7.450;2022-08-21T09:54:29;22.50;99.90
19292;DHT22;9779;51.756;7.450;2022-08-21T09:56:58;22.60;99.90
19292;DHT22;9779;51.756;7.450;2022-08-21T09:59:44;22.80;99.90
19292;DHT22;9779;51.756;7.450;2022-08-21T10:04:51;23.00;99.90
19292;DHT22;9779;51.756;7.450;2022-08-21T10:07:20;23.10;99.90
19292;DHT22;9779;51.756;7.450;2022-08-21T10:09:57;23.30;99.90
19292;DHT22;9779;51.756;7.450;2022-08-21T10:12:28;23.40;99.90
19292;DHT22;9779;51.756;7.450;2022-08-21T10:18:00;23.50;99.90
19292;DHT22;9779;51.756;7.450;2022-08-21T10:20:38;23.50;99.90
19292;DHT22;9779;51.756;7.450;2022-08-21T10:26:05;23.80;99.90
19292;DHT22;9779;51.756;7.450;2022-08-21T10:31:43;24.20;99.90
19292;DHT22;9779;51.756;7.450;2022-08-21T10:34:37;24.30;99.90
19292;DHT22;9779;51.756;7.450;2022-08-21T11:16:54;26.00;95.20
19292;DHT22;9779;51.756;7.450;2022-08-21T11:19:33;26.00;95.20
19292;DHT22;9779;51.756;7.450;2022-08-21T11:22:24;26.20;94.40
19292;DHT22;9779;51.756;7.450;2022-08-21T11:27:58;26.30;93.70
19292;DHT22;9779;51.756;7.450;2022-08-21T11:30:33;26.10;92.30
19292;DHT22;9779;51.756;7.450;2022-08-21T11:43:38;27.10;88.70
19292;DHT22;9779;51.756;7.450;2022-08-21T11:46:19;27.40;91.30
19292;DHT22;9779;51.756;7.450;2022-08-21T11:53:04;27.60;88.70
19292;DHT22;9779;51.756;7.450;2022-08-21T12:21:20;26.60;84.80
19292;DHT22;9779;51.756;7.450;2022-08-21T12:26:56;27.20;81.50
19292;DHT22;9779;51.756;7.450;2022-08-21T12:29:31;27.40;83.30
19292;DHT22;9779;51.756;7.450;2022-08-21T12:31:59;27.70;80.60
19292;DHT22;9779;51.756;7.450;2022-08-21T12:34:40;27.80;78.70
19292;DHT22;9779;51.756;7.450;2022-08-21T12:39:54;28.50;76.30
19292;DHT22;9779;51.756;7.450;2022-08-21T12:42:23;28.40;74.50
19292;DHT22;9779;51.756;7.450;2022-08-21T12:44:55;28.50;78.10
19292;DHT22;9779;51.756;7.450;2022-08-21T12:47:33;28.90;78.30
19292;DHT22;9779;51.756;7.450;2022-08-21T12:52:59;29.20;75.80
19292;DHT22;9779;51.756;7.450;2022-08-21T12:55:31;29.30;72.70
19292;DHT22;9779;51.756;7.450;2022-08-21T12:57:57;29.50;75.20
19292;DHT22;9779;51.756;7.450;2022-08-21T13:00:25;29.10;72.50
19292;DHT22;9779;51.756;7.450;2022-08-21T13:02:52;28.70;73.00
19292;DHT22;9779;51.756;7.450;2022-08-21T13:05:36;29.00;70.80
19292;DHT22;9779;51.756;7.450;2022-08-21T13:08:09;29.10;70.20
19292;DHT22;9779;51.756;7.450;2022-08-21T13:10:36;28.60;70.70
19292;DHT22;9779;51.756;7.450;2022-08-21T13:13:06;28.50;72.80
19292;DHT22;9779;51.756;7.450;2022-08-21T13:15:35;28.80;72.80
19292;DHT22;9779;51.756;7.450;2022-08-21T13:18:03;29.10;70.30
19292;DHT22;9779;51.756;7.450;2022-08-21T13:20:37;29.20;70.10
19292;DHT22;9779;51.756;7.450;2022-08-21T13:23:21;29.00;70.10
19292;DHT22;9779;51.756;7.450;2022-08-21T13:25:48;29.10;70.20
19292;DHT22;9779;51.756;7.450;2022-08-21T13:28:14;29.40;68.90
19292;DHT22;9779;51.756;7.450;2022-08-21T13:30:46;29.70;67.60
19292;DHT22;9779;51.756;7.450;2022-08-21T13:33:16;29.40;65.70
19292;DHT22;9779;51.756;7.450;2022-08-21T13:35:52;29.60;68.00
19292;DHT22;9779;51.756;7.450;2022-08-21T13:38:28;29.80;63.70
19292;DHT22;9779;51.756;7.450;2022-08-21T13:40:56;29.70;64.50
19292;DHT22;9779;51.756;7.450;2022-08-21T13:43:35;29.90;66.30
19292;DHT22;9779;51.756;7.450;2022-08-21T13:46:10;30.30;65.30
19292;DHT22;9779;51.756;7.450;2022-08-21T13:48:37;30.80;63.50
19292;DHT22;9779;51.756;7.450;2022-08-21T13:51:03;30.80;59.90
19292;DHT22;9779;51.756;7.450;2022-08-21T13:53:31;30.90;60.40
19292;DHT22;9779;51.756;7.450;2022-08-21T13:55:58;30.70;56.70
19292;DHT22;9779;51.756;7.450;2022-08-21T13:58:42;30.90;58.40
19292;DHT22;9779;51.756;7.450;2022-08-21T14:01:37;31.10;55.30
19292;DHT22;9779;51.756;7.450;2022-08-21T14:06:57;30.50;62.10
19292;DHT22;9779;51.756;7.450;2022-08-21T14:09:33;30.10;60.50
19292;DHT22;9779;51.756;7.450;2022-08-21T14:14:57;30.80;58.50
19292;DHT22;9779;51.756;7.450;2022-08-21T14:17:29;30.60;56.50
19292;DHT22;9779;51.756;7.450;2022-08-21T14:19:55;30.60;57.00
19292;DHT22;9779;51.756;7.450;2022-08-21T14:22:40;30.50;56.10
19292;DHT22;9779;51.756;7.450;2022-08-21T14:30:31;31.00;55.00
19292;DHT22;9779;51.756;7.450;2022-08-21T14:32:59;31.20;55.60
19292;DHT22;9779;51.756;7.450;2022-08-21T14:35:24;31.40;54.20
19292;DHT22;9779;51.756;7.450;2022-08-21T14:37:51;31.50;53.80
19292;DHT22;9779;51.756;7.450;2022-08-21T14:40:18;31.50;54.00
19292;DHT22;9779;51.756;7.450;2022-08-21T14:42:44;31.50;52.60
19292;DHT22;9779;51.756;7.450;2022-08-21T14:45:20;31.40;56.20
19292;DHT22;9779;51.756;7.450;2022-08-21T14:47:48;31.80;54.20
19292;DHT22;9779;51.756;7.450;2022-08-21T14:50:15;31.70;53.80
19292;DHT22;9779;51.756;7.450;2022-08-21T14:52:41;31.10;53.80
19292;DHT22;9779;51.756;7.450;2022-08-21T14:55:09;30.80;55.50
19292;DHT22;9779;51.756;7.450;2022-08-21T14:57:40;30.50;56.50
19292;DHT22;9779;51.756;7.450;2022-08-21T15:00:12;30.10;55.90
19292;DHT22;9779;51.756;7.450;2022-08-21T15:02:39;29.90;56.80
19292;DHT22;9779;51.756;7.450;2022-08-21T15:05:05;30.00;57.30
19292;DHT22;9779;51.756;7.450;2022-08-21T15:07:30;30.30;57.00
19292;DHT22;9779;51.756;7.450;2022-08-21T15:09:56;30.50;56.10
19292;DHT22;9779;51.756;7.450;2022-08-21T15:12:23;30.40;57.10
19292;DHT22;9779;51.756;7.450;2022-08-21T15:14:49;30.40;58.20
19292;DHT22;9779;51.756;7.450;2022-08-21T15:17:14;29.90;56.80
19292;DHT22;9779;51.756;7.450;2022-08-21T15:19:40;30.00;57.30
19292;DHT22;9779;51.756;7.450;2022-08-21T15:22:06;30.00;57.60
19292;DHT22;9779;51.756;7.450;2022-08-21T15:24:32;30.00;58.30
19292;DHT22;9779;51.756;7.450;2022-08-21T15:27:00;30.40;59.80
19292;DHT22;9779;51.756;7.450;2022-08-21T15:29:26;30.40;59.20
19292;DHT22;9779;51.756;7.450;2022-08-21T15:32:00;30.30;59.50
19292;DHT22;9779;51.756;7.450;2022-08-21T15:34:28;30.40;56.00
19292;DHT22;9779;51.756;7.450;2022-08-21T15:36:55;30.00;55.70
19292;DHT22;9779;51.756;7.450;2022-08-21T15:39:21;29.80;59.10
19292;DHT22;9779;51.756;7.450;2022-08-21T15:41:47;29.80;59.60
19292;DHT22;9779;51.756;7.450;2022-08-21T15:44:13;29.50;60.40
19292;DHT22;9779;51.756;7.450;2022-08-21T15:46:39;29.30;58.80
19292;DHT22;9779;51.756;7.450;2022-08-21T15:49:05;29.10;59.10
19292;DHT22;9779;51.756;7.450;2022-08-21T15:51:32;29.10;59.60
19292;DHT22;9779;51.756;7.450;2022-08-21T15:53:58;28.90;57.80
19292;DHT22;9779;51.756;7.450;2022-08-21T15:56:26;28.60;59.40
19292;DHT22;9779;51.756;7.450;2022-08-21T15:58:58;28.80;61.90
19292;DHT22;9779;51.756;7.450;2022-08-21T16:01:24;28.70;59.10
19292;DHT22;9779;51.756;7.450;2022-08-21T16:03:52;28.90;61.00
19292;DHT22;9779;51.756;7.450;2022-08-21T16:06:19;28.90;62.20
19292;DHT22;9779;51.756;7.450;2022-08-21T16:08:45;28.90;62.30
19292;DHT22;9779;51.756;7.450;2022-08-21T16:11:13;28.80;59.50
19292;DHT22;9779;51.756;7.450;2022-08-21T16:13:42;28.30;62.00
19292;DHT22;9779;51.756;7.450;2022-08-21T16:16:10;28.20;61.60
19292;DHT22;9779;51.756;7.450;2022-08-21T16:18:38;28.10;62.00
19292;DHT22;9779;51.756;7.450;2022-08-21T16:21:04;27.90;62.10
19292;DHT22;9779;51.756;7.450;2022-08-21T16:23:30;27.80;62.10
19292;DHT22;9779;51.756;7.450;2022-08-21T16:25:58;27.70;63.00
19292;DHT22;9779;51.756;7.450;2022-08-21T16:28:24;27.70;63.00
19292;DHT22;9779;51.756;7.450;2022-08-21T16:30:50;27.70;64.40
19292;DHT22;9779;51.756;7.450;2022-08-21T16:33:37;27.80;63.20
19292;DHT22;9779;51.756;7.450;2022-08-21T16:36:04;27.60;63.60
19292;DHT22;9779;51.756;7.450;2022-08-21T16:38:30;27.60;63.10
19292;DHT22;9779;51.756;7.450;2022-08-21T16:40:58;27.60;64.70
19292;DHT22;9779;51.756;7.450;2022-08-21T16:43:26;27.60;65.00
19292;DHT22;9779;51.756;7.450;2022-08-21T16:45:53;27.60;66.00
19292;DHT22;9779;51.756;7.450;2022-08-21T16:48:20;27.30;63.10
19292;DHT22;9779;51.756;7.450;2022-08-21T16:50:45;27.30;65.70
19292;DHT22;9779;51.756;7.450;2022-08-21T16:53:11;27.20;64.60
19292;DHT22;9779;51.756;7.450;2022-08-21T16:55:37;27.10;63.10
19292;DHT22;9779;51.756;7.450;2022-08-21T16:58:14;27.10;63.90
19292;DHT22;9779;51.756;7.450;2022-08-21T17:00:40;26.90;63.30
19292;DHT22;9779;51.756;7.450;2022-08-21T17:03:14;27.00;65.60
19292;DHT22;9779;51.756;7.450;2022-08-21T17:05:41;27.00;65.80
19292;DHT22;9779;51.756;7.450;2022-08-21T17:08:07;27.00;65.80
19292;DHT22;9779;51.756;7.450;2022-08-21T17:10:35;27.00;67.10
19292;DHT22;9779;51.756;7.450;2022-08-21T17:13:01;26.90;66.80
19292;DHT22;9779;51.756;7.450;2022-08-21T17:15:31;26.90;66.40
19292;DHT22;9779;51.756;7.450;2022-08-21T17:17:58;26.90;68.20
19292;DHT22;9779;51.756;7.450;2022-08-21T17:20:24;26.90;68.80
19292;DHT22;9779;51.756;7.450;2022-08-21T17:22:50;26.90;66.30
19292;DHT22;9779;51.756;7.450;2022-08-21T17:25:17;26.90;67.90
19292;DHT22;9779;51.756;7.450;2022-08-21T17:27:43;26.90;67.40
19292;DHT22;9779;51.756;7.450;2022-08-21T17:30:11;26.90;67.20
19292;DHT22;9779;51.756;7.450;2022-08-21T17:32:37;26.90;67.80
19292;DHT22;9779;51.756;7.450;2022-08-21T17:35:03;26.80;70.50
19292;DHT22;9779;51.756;7.450;2022-08-21T17:37:29;26.80;68.80
19292;DHT22;9779;51.756;7.450;2022-08-21T17:39:56;26.80;71.20
19292;DHT22;9779;51.756;7.450;2022-08-21T17:42:21;26.70;70.50
19292;DHT22;9779;51.756;7.450;2022-08-21T17:44:48;26.60;70.40
19292;DHT22;9779;51.756;7.450;2022-08-21T17:47:14;26.40;68.40
19292;DHT22;9779;51.756;7.450;2022-08-21T17:49:40;26.40;70.20
19292;DHT22;9779;51.756;7.450;2022-08-21T17:52:06;26.40;70.60
19292;DHT22;9779;51.756;7.450;2022-08-21T17:54:32;26.30;72.00
19292;DHT22;9779;51.756;7.450;2022-08-21T17:56:58;26.20;70.80
19292;DHT22;9779;51.756;7.450;2022-08-21T17:59:25;26.10;70.50
19292;DHT22;9779;51.756;7.450;2022-08-21T18:01:52;26.00;70.70